Nagaleader — VRDD5 — position and weather

sailwx.info

Track history (hours):
 
Tides and Currents Weather Stations Pressure Air Temp Water Temp Dewpoint Dewpoint Depression Visibility Wind Speed Wind Dir Waves Ship Positions

Nagaleader

Last reported at 2017-May-26 13:59 UTC. Time now 2017-May-27 15:46 UTC.
Position N 22°50' E 120°05'.

Length 113 m; draft 5.8 m.

Type: Cargo ship. MMSI: 477926700.

Date/timePositionNaut miles runAvg speedWind from/ knotsBaromVisibWave heightAir tempDewpointWater temp
2017-May-26 13:59N 22°50' E 120°05'612.6
2017-May-26 13:31N 22°44' E 120°07'612.3
2017-May-26 13:00N 22°39' E 120°10'611.5
2017-May-26 12:30N 22°34' E 120°13'5 9.5
2017-May-26 12:00N 22°33' E 120°18'1 1.3
2017-May-26 11:21N 22°34' E 120°19'0 0.0
2017-May-26 11:00N 22°34' E 120°19'0 0.0
2017-May-26 10:21N 22°34' E 120°19'0 0.0
2017-May-26 10:00N 22°34' E 120°19'0 0.0
2017-May-26 09:30N 22°34' E 120°19'0 0.0
2017-May-26 08:54N 22°34' E 120°19'0 0.0
2017-May-26 08:24N 22°34' E 120°19'0 0.0
2017-May-26 08:00N 22°34' E 120°19'0 0.0
2017-May-26 07:30N 22°34' E 120°19'0 0.0
2017-May-26 07:00N 22°34' E 120°19'0 0.0
2017-May-26 06:30N 22°34' E 120°19'0 0.0
2017-May-26 06:00N 22°34' E 120°19'0 0.0
2017-May-26 05:30N 22°34' E 120°19'0 0.0
2017-May-26 05:00N 22°34' E 120°19'0 0.0
2017-May-26 04:30N 22°34' E 120°19'0 0.0
2017-May-26 04:00N 22°34' E 120°19'0 0.0
2017-May-26 03:21N 22°34' E 120°19'0 0.0
2017-May-26 02:57N 22°34' E 120°19'0 0.0
2017-May-26 02:30N 22°34' E 120°19'0 0.0
2017-May-26 02:00N 22°34' E 120°19'0 0.0
2017-May-26 01:30N 22°34' E 120°19'1 2.0
2017-May-26 01:01N 22°33' E 120°18'4 7.8
2017-May-26 00:31N 22°32' E 120°14'2 4.5
2017-May-26 00:01N 22°30' E 120°12'1 2.3
2017-May-25 23:30N 22°31' E 120°12'611.9
2017-May-25 23:00N 22°37' E 120°09'612.9
2017-May-25 22:30N 22°43' E 120°07'4 0.1
2017-May-23 19:30N 22°47' E 120°07'611.8
2017-May-23 19:00N 22°41' E 120°09'611.3
2017-May-23 18:30N 22°36' E 120°12'5 9.4
2017-May-23 18:01N 22°33' E 120°15'4 0.6
2017-May-23 11:52N 22°34' E 120°19'0 0.0
2017-May-23 11:28N 22°34' E 120°19'0 0.0
2017-May-23 10:43N 22°34' E 120°19'0 0.0
2017-May-23 10:19N 22°34' E 120°19'0 0.0
2017-May-23 09:58N 22°34' E 120°19'0 0.0
2017-May-23 09:25N 22°34' E 120°19'0 0.0
2017-May-23 08:58N 22°34' E 120°19'0 0.0
2017-May-23 08:22N 22°34' E 120°19'0 0.0
2017-May-23 07:55N 22°34' E 120°19'0 0.0
2017-May-23 07:19N 22°34' E 120°19'0 0.0
2017-May-23 06:58N 22°34' E 120°19'0 0.0
2017-May-23 06:28N 22°34' E 120°19'0 0.0
2017-May-23 05:52N 22°34' E 120°19'1 1.5
2017-May-23 05:30N 22°33' E 120°19'5 9.7
2017-May-23 05:00N 22°32' E 120°14'612.7
2017-May-23 04:31N 22°37' E 120°10'713.3
2017-May-23 04:01N 22°43' E 120°07'  
2017-May-20 21:00N 22°50' E 120°05'612.5
2017-May-20 20:30N 22°44' E 120°08'611.7
2017-May-20 20:00N 22°39' E 120°11'611.4
2017-May-20 19:30N 22°34' E 120°13'5 9.7
2017-May-20 19:00N 22°33' E 120°18'2 0.2
2017-May-20 08:23N 22°33' E 120°20'3 7.0
2017-May-20 08:00N 22°33' E 120°17'1 2.6
2017-May-20 07:27N 22°32' E 120°16'0 0.0
2017-May-20 07:00N 22°32' E 120°16'0 0.0
2017-May-20 06:27N 22°32' E 120°16'0 0.0
2017-May-20 06:00N 22°32' E 120°16'0 0.0
2017-May-20 05:30N 22°32' E 120°16'0 0.0
2017-May-20 04:57N 22°32' E 120°16'0 0.0
2017-May-20 04:30N 22°32' E 120°16'0 0.0
2017-May-20 04:00N 22°32' E 120°16'0 0.0
2017-May-20 03:30N 22°32' E 120°16'0 0.0
2017-May-20 03:00N 22°32' E 120°16'0 0.0
2017-May-20 02:24N 22°32' E 120°16'0 0.0
2017-May-20 01:57N 22°32' E 120°16'0 0.0
2017-May-20 01:30N 22°32' E 120°16'0 0.0
2017-May-20 00:57N 22°32' E 120°16'0 0.0
2017-May-20 00:30N 22°32' E 120°16'0 0.0
2017-May-19 23:54N 22°32' E 120°16'0 0.0
2017-May-19 23:30N 22°32' E 120°16'0 0.0
2017-May-19 23:00N 22°32' E 120°16'0 0.1
2017-May-19 22:27N 22°32' E 120°16'0 0.1
2017-May-19 21:54N 22°32' E 120°16'0 0.0
2017-May-19 21:30N 22°32' E 120°16'0 0.0
2017-May-19 21:00N 22°32' E 120°16'0 0.0
2017-May-19 20:30N 22°32' E 120°16'0 0.0
2017-May-19 19:57N 22°32' E 120°16'0 0.0
2017-May-19 19:27N 22°32' E 120°16'0 0.0
2017-May-19 19:00N 22°32' E 120°16'0 0.0
2017-May-19 18:24N 22°32' E 120°16'0 0.0
2017-May-19 18:00N 22°32' E 120°16'0 0.0
2017-May-19 17:30N 22°32' E 120°16'0 0.0
2017-May-19 17:00N 22°32' E 120°16'0 0.0
2017-May-19 16:30N 22°32' E 120°16'0 0.0
2017-May-19 16:00N 22°32' E 120°16'0 0.0
2017-May-19 15:30N 22°31' E 120°16'1 1.6
2017-May-19 15:00N 22°32' E 120°15'1010.4
2017-May-19 14:00N 22°40' E 120°09'713.1
2017-May-19 13:30N 22°46' E 120°06'7 0.1
2017-May-17 11:04N 22°53' E 120°04'410.6
2017-May-17 10:39N 22°49' E 120°06'210.6
2017-May-17 10:30N 22°47' E 120°06'510.6
2017-May-17 10:00N 22°42' E 120°09'611.6
2017-May-17 09:30N 22°37' E 120°11'510.5
2017-May-17 09:00N 22°33' E 120°15'5 0.6
2017-May-17 01:36N 22°33' E 120°20'0 0.0
2017-May-17 01:30N 22°33' E 120°20'0 0.0
2017-May-17 01:00N 22°33' E 120°20'0 0.0
2017-May-17 00:21N 22°33' E 120°20'0 0.0
2017-May-16 23:35N 22°33' E 120°20'0 0.5
2017-May-16 23:27N 22°33' E 120°20'2 5.0
2017-May-16 23:00N 22°33' E 120°17'1 2.9
2017-May-16 22:31N 22°32' E 120°16'3 5.2
2017-May-16 22:01N 22°32' E 120°13'713.3
2017-May-16 21:30N 22°38' E 120°10'714.1
2017-May-16 21:00N 22°45' E 120°07'  
Track history (hours):
 
Tides and Currents Weather Stations Pressure Air Temp Water Temp Dewpoint Dewpoint Depression Visibility Wind Speed Wind Dir Waves Ship Positions

Nagaleader

Last reported at 2017-May-26 13:59 UTC. Time now 2017-May-27 15:46 UTC.
Position N 22°50' E 120°05'.

Length 113 m; draft 5.8 m.

Type: Cargo ship. MMSI: 477926700.

Date/timePositionNaut miles runAvg speedWind from/ knotsBaromVisibWave heightAir tempDewpointWater temp
2017-May-26 13:59N 22°50' E 120°05'612.6
2017-May-26 13:31N 22°44' E 120°07'612.3
2017-May-26 13:00N 22°39' E 120°10'611.5
2017-May-26 12:30N 22°34' E 120°13'5 9.5
2017-May-26 12:00N 22°33' E 120°18'1 1.3
2017-May-26 11:21N 22°34' E 120°19'0 0.0
2017-May-26 11:00N 22°34' E 120°19'0 0.0
2017-May-26 10:21N 22°34' E 120°19'0 0.0
2017-May-26 10:00N 22°34' E 120°19'0 0.0
2017-May-26 09:30N 22°34' E 120°19'0 0.0
2017-May-26 08:54N 22°34' E 120°19'0 0.0
2017-May-26 08:24N 22°34' E 120°19'0 0.0
2017-May-26 08:00N 22°34' E 120°19'0 0.0
2017-May-26 07:30N 22°34' E 120°19'0 0.0
2017-May-26 07:00N 22°34' E 120°19'0 0.0
2017-May-26 06:30N 22°34' E 120°19'0 0.0
2017-May-26 06:00N 22°34' E 120°19'0 0.0
2017-May-26 05:30N 22°34' E 120°19'0 0.0
2017-May-26 05:00N 22°34' E 120°19'0 0.0
2017-May-26 04:30N 22°34' E 120°19'0 0.0
2017-May-26 04:00N 22°34' E 120°19'0 0.0
2017-May-26 03:21N 22°34' E 120°19'0 0.0
2017-May-26 02:57N 22°34' E 120°19'0 0.0
2017-May-26 02:30N 22°34' E 120°19'0 0.0
2017-May-26 02:00N 22°34' E 120°19'0 0.0
2017-May-26 01:30N 22°34' E 120°19'1 2.0
2017-May-26 01:01N 22°33' E 120°18'4 7.8
2017-May-26 00:31N 22°32' E 120°14'2 4.5
2017-May-26 00:01N 22°30' E 120°12'1 2.3
2017-May-25 23:30N 22°31' E 120°12'611.9
2017-May-25 23:00N 22°37' E 120°09'612.9
2017-May-25 22:30N 22°43' E 120°07'4 0.1
2017-May-23 19:30N 22°47' E 120°07'611.8
2017-May-23 19:00N 22°41' E 120°09'611.3
2017-May-23 18:30N 22°36' E 120°12'5 9.4
2017-May-23 18:01N 22°33' E 120°15'4 0.6
2017-May-23 11:52N 22°34' E 120°19'0 0.0
2017-May-23 11:28N 22°34' E 120°19'0 0.0
2017-May-23 10:43N 22°34' E 120°19'0 0.0
2017-May-23 10:19N 22°34' E 120°19'0 0.0
2017-May-23 09:58N 22°34' E 120°19'0 0.0
2017-May-23 09:25N 22°34' E 120°19'0 0.0
2017-May-23 08:58N 22°34' E 120°19'0 0.0
2017-May-23 08:22N 22°34' E 120°19'0 0.0
2017-May-23 07:55N 22°34' E 120°19'0 0.0
2017-May-23 07:19N 22°34' E 120°19'0 0.0
2017-May-23 06:58N 22°34' E 120°19'0 0.0
2017-May-23 06:28N 22°34' E 120°19'0 0.0
2017-May-23 05:52N 22°34' E 120°19'1 1.5
2017-May-23 05:30N 22°33' E 120°19'5 9.7
2017-May-23 05:00N 22°32' E 120°14'612.7
2017-May-23 04:31N 22°37' E 120°10'713.3
2017-May-23 04:01N 22°43' E 120°07'  
2017-May-20 21:00N 22°50' E 120°05'612.5
2017-May-20 20:30N 22°44' E 120°08'611.7
2017-May-20 20:00N 22°39' E 120°11'611.4
2017-May-20 19:30N 22°34' E 120°13'5 9.7
2017-May-20 19:00N 22°33' E 120°18'2 0.2
2017-May-20 08:23N 22°33' E 120°20'3 7.0
2017-May-20 08:00N 22°33' E 120°17'1 2.6
2017-May-20 07:27N 22°32' E 120°16'0 0.0
2017-May-20 07:00N 22°32' E 120°16'0 0.0
2017-May-20 06:27N 22°32' E 120°16'0 0.0
2017-May-20 06:00N 22°32' E 120°16'0 0.0
2017-May-20 05:30N 22°32' E 120°16'0 0.0
2017-May-20 04:57N 22°32' E 120°16'0 0.0
2017-May-20 04:30N 22°32' E 120°16'0 0.0
2017-May-20 04:00N 22°32' E 120°16'0 0.0
2017-May-20 03:30N 22°32' E 120°16'0 0.0
2017-May-20 03:00N 22°32' E 120°16'0 0.0
2017-May-20 02:24N 22°32' E 120°16'0 0.0
2017-May-20 01:57N 22°32' E 120°16'0 0.0
2017-May-20 01:30N 22°32' E 120°16'0 0.0
2017-May-20 00:57N 22°32' E 120°16'0 0.0
2017-May-20 00:30N 22°32' E 120°16'0 0.0
2017-May-19 23:54N 22°32' E 120°16'0 0.0
2017-May-19 23:30N 22°32' E 120°16'0 0.0
2017-May-19 23:00N 22°32' E 120°16'0 0.1
2017-May-19 22:27N 22°32' E 120°16'0 0.1
2017-May-19 21:54N 22°32' E 120°16'0 0.0
2017-May-19 21:30N 22°32' E 120°16'0 0.0
2017-May-19 21:00N 22°32' E 120°16'0 0.0
2017-May-19 20:30N 22°32' E 120°16'0 0.0
2017-May-19 19:57N 22°32' E 120°16'0 0.0
2017-May-19 19:27N 22°32' E 120°16'0 0.0
2017-May-19 19:00N 22°32' E 120°16'0 0.0
2017-May-19 18:24N 22°32' E 120°16'0 0.0
2017-May-19 18:00N 22°32' E 120°16'0 0.0
2017-May-19 17:30N 22°32' E 120°16'0 0.0
2017-May-19 17:00N 22°32' E 120°16'0 0.0
2017-May-19 16:30N 22°32' E 120°16'0 0.0
2017-May-19 16:00N 22°32' E 120°16'0 0.0
2017-May-19 15:30N 22°31' E 120°16'1 1.6
2017-May-19 15:00N 22°32' E 120°15'1010.4
2017-May-19 14:00N 22°40' E 120°09'713.1
2017-May-19 13:30N 22°46' E 120°06'7 0.1
2017-May-17 11:04N 22°53' E 120°04'410.6
2017-May-17 10:39N 22°49' E 120°06'210.6
2017-May-17 10:30N 22°47' E 120°06'510.6
2017-May-17 10:00N 22°42' E 120°09'611.6
2017-May-17 09:30N 22°37' E 120°11'510.5
2017-May-17 09:00N 22°33' E 120°15'5 0.6
2017-May-17 01:36N 22°33' E 120°20'0 0.0
2017-May-17 01:30N 22°33' E 120°20'0 0.0
2017-May-17 01:00N 22°33' E 120°20'0 0.0
2017-May-17 00:21N 22°33' E 120°20'0 0.0
2017-May-16 23:35N 22°33' E 120°20'0 0.5
2017-May-16 23:27N 22°33' E 120°20'2 5.0
2017-May-16 23:00N 22°33' E 120°17'1 2.9
2017-May-16 22:31N 22°32' E 120°16'3 5.2
2017-May-16 22:01N 22°32' E 120°13'713.3
2017-May-16 21:30N 22°38' E 120°10'714.1
2017-May-16 21:00N 22°45' E 120°07'  

Dump ship's entire track history